Time;durP1;ratioP1;P1;durP2;ratioP2;P2;SDS_P1;SDS_P2;PMS_P1;PMS_P2;Temp;Humidity;BMP_temperature;BMP_pressure;BME280_temperature;BME280_humidity;BME280_pressure;Samples;Min_cycle;Max_cycle;Signal;HPM_P1;HPM_P2
2020/12/15 00:02:10;;;;;;;3.60;3.40;;;12.20;84.50;;;;;;4993826;28;20801;-75
2020/12/15 00:04:36;;;;;;;3.50;3.40;;;12.10;84.90;;;;;;4995670;28;20238;-75
2020/12/15 00:07:02;;;;;;;2.90;2.70;;;12.20;85.40;;;;;;4994926;28;20178;-75
2020/12/15 00:09:28;;;;;;;3.30;3.03;;;12.20;83.80;;;;;;5004555;28;20190;-75
2020/12/15 00:11:55;;;;;;;3.80;3.50;;;12.10;84.60;;;;;;5014741;28;20420;-75
2020/12/15 00:14:21;;;;;;;3.37;3.17;;;12.00;84.00;;;;;;5015033;28;20424;-75
2020/12/15 00:16:47;;;;;;;3.60;3.30;;;11.90;83.70;;;;;;5011296;28;20453;-76
2020/12/15 00:19:12;;;;;;;3.60;3.30;;;12.00;84.20;;;;;;5013824;28;20260;-75
2020/12/15 00:21:42;;;;;;;3.80;3.50;;;12.10;84.80;;;;;;5013782;28;20265;-75
2020/12/15 00:24:09;;;;;;;3.60;3.30;;;12.00;83.80;;;;;;5014132;28;20187;-75
2020/12/15 00:26:34;;;;;;;3.63;3.37;;;11.90;83.40;;;;;;5015006;28;20425;-76
2020/12/15 00:29:00;;;;;;;3.40;3.10;;;11.90;84.80;;;;;;5013626;28;20542;-75
2020/12/15 00:31:35;;;;;;;3.53;3.17;;;12.00;84.40;;;;;;5014968;28;20181;-75
2020/12/15 00:34:02;;;;;;;3.50;3.20;;;12.10;83.50;;;;;;5014094;28;20166;-75
2020/12/15 00:36:27;;;;;;;3.37;3.17;;;11.90;83.70;;;;;;5014931;28;20460;-75
2020/12/15 00:38:53;;;;;;;3.10;2.90;;;11.80;84.10;;;;;;5013181;28;20438;-75
2020/12/15 00:41:20;;;;;;;3.40;3.20;;;11.80;84.70;;;;;;5014625;28;20194;-75
2020/12/15 00:43:46;;;;;;;3.13;2.93;;;11.80;85.60;;;;;;5014566;28;20423;-75
2020/12/15 00:46:13;;;;;;;2.90;2.80;;;11.50;84.20;;;;;;5013172;28;20594;-75
2020/12/15 00:48:40;;;;;;;3.40;3.20;;;11.50;85.50;;;;;;5014742;28;20437;-75
2020/12/15 00:51:05;;;;;;;3.87;3.67;;;11.50;85.40;;;;;;5013388;28;20421;-75
2020/12/15 00:53:31;;;;;;;3.50;3.30;;;11.50;85.60;;;;;;5014130;28;20897;-75
2020/12/15 00:55:57;;;;;;;4.10;3.90;;;11.40;86.10;;;;;;5013540;28;20219;-75
2020/12/15 00:58:23;;;;;;;3.60;3.40;;;11.30;86.00;;;;;;5013091;28;20480;-75
2020/12/15 01:00:49;;;;;;;4.23;3.53;;;11.40;87.00;;;;;;5014237;28;20182;-75
2020/12/15 01:03:14;;;;;;;3.73;3.53;;;11.40;87.30;;;;;;5013562;28;20620;-75
2020/12/15 01:05:40;;;;;;;3.40;3.20;;;11.40;87.30;;;;;;5012774;28;20263;-75
2020/12/15 01:08:06;;;;;;;3.00;2.83;;;11.50;88.20;;;;;;5012903;28;20241;-75
2020/12/15 01:10:31;;;;;;;2.73;2.63;;;11.60;88.40;;;;;;5012959;28;20260;-76
2020/12/15 01:12:57;;;;;;;3.23;3.03;;;11.60;88.90;;;;;;5012084;28;20208;-75
2020/12/15 01:15:23;;;;;;;3.17;2.97;;;11.70;89.80;;;;;;5012837;28;20185;-75
2020/12/15 01:17:48;;;;;;;3.33;3.13;;;11.80;89.60;;;;;;5012571;28;20206;-75
2020/12/15 01:20:14;;;;;;;3.40;3.20;;;11.90;89.40;;;;;;5013074;28;20181;-75
2020/12/15 01:22:40;;;;;;;3.50;3.20;;;11.90;89.90;;;;;;5008038;28;20179;-75
2020/12/15 01:25:05;;;;;;;3.80;3.50;;;11.80;89.90;;;;;;5014003;28;20195;-74
2020/12/15 01:27:31;;;;;;;3.30;3.10;;;11.70;89.90;;;;;;5013937;28;20187;-75
2020/12/15 01:29:57;;;;;;;2.90;2.80;;;11.60;90.60;;;;;;5012635;28;20170;-75
2020/12/15 01:32:23;;;;;;;3.50;3.30;;;11.50;91.00;;;;;;5013344;28;20190;-74
2020/12/15 01:34:48;;;;;;;3.43;3.13;;;11.40;91.40;;;;;;5013163;28;20185;-74
2020/12/15 01:37:14;;;;;;;3.60;3.33;;;11.50;92.60;;;;;;5012365;28;20201;-75
2020/12/15 01:39:39;;;;;;;3.60;3.37;;;11.60;92.40;;;;;;5013548;28;20189;-75
2020/12/15 01:42:09;;;;;;;3.33;3.13;;;11.70;93.10;;;;;;5012524;28;20181;-74
2020/12/15 01:44:34;;;;;;;3.07;2.90;;;11.80;92.80;;;;;;5010431;28;20198;-74
2020/12/15 01:47:00;;;;;;;3.10;2.90;;;11.80;93.00;;;;;;5010498;28;20503;-75
2020/12/15 01:49:27;;;;;;;3.50;3.20;;;11.80;93.50;;;;;;5013181;28;20189;-75
2020/12/15 01:51:52;;;;;;;3.30;3.10;;;11.90;93.40;;;;;;5012597;28;20192;-76
2020/12/15 01:54:18;;;;;;;3.50;3.20;;;11.90;93.80;;;;;;5012395;28;20418;-75
2020/12/15 01:56:45;;;;;;;3.57;3.37;;;11.80;94.40;;;;;;5013006;28;20649;-74
2020/12/15 01:59:13;;;;;;;4.17;3.87;;;11.70;94.40;;;;;;5010853;28;20893;-75
2020/12/15 02:01:46;;;;;;;3.90;3.60;;;11.60;94.80;;;;;;5012772;28;20423;-74
2020/12/15 02:04:13;;;;;;;3.83;3.63;;;11.10;95.70;;;;;;5011965;28;20421;-75
2020/12/15 02:06:43;;;;;;;4.10;3.80;;;11.20;97.10;;;;;;5012683;28;20814;-75
2020/12/15 02:09:09;;;;;;;3.90;3.60;;;10.80;97.50;;;;;;5011079;28;20413;-75
2020/12/15 02:11:35;;;;;;;3.43;3.23;;;10.90;98.30;;;;;;5012661;28;20482;-75
2020/12/15 02:14:01;;;;;;;4.20;3.93;;;10.90;98.40;;;;;;5012078;28;20502;-75
2020/12/15 02:16:29;;;;;;;4.10;3.80;;;10.80;98.30;;;;;;5012494;28;21037;-74
2020/12/15 02:18:55;;;;;;;4.60;4.30;;;10.70;99.30;;;;;;5009568;28;20817;-76
2020/12/15 02:21:21;;;;;;;4.40;4.10;;;10.40;99.20;;;;;;5012290;28;20510;-75
2020/12/15 02:23:46;;;;;;;4.30;4.00;;;10.40;99.80;;;;;;5012076;28;20191;-75
2020/12/15 02:26:12;;;;;;;3.90;3.60;;;10.30;99.90;;;;;;5011305;28;20632;-75
2020/12/15 02:28:38;;;;;;;5.13;4.10;;;10.30;99.90;;;;;;5012527;28;20219;-74
2020/12/15 02:31:04;;;;;;;4.30;4.00;;;10.00;99.90;;;;;;5010415;28;20188;-75
2020/12/15 02:33:30;;;;;;;4.70;4.40;;;10.00;99.90;;;;;;5011439;28;20182;-75
2020/12/15 02:35:59;;;;;;;3.67;3.33;;;10.00;99.90;;;;;;5011606;28;20414;-77
2020/12/15 02:38:25;;;;;;;4.60;4.27;;;10.20;99.90;;;;;;5011150;28;20520;-76
2020/12/15 02:40:51;;;;;;;4.60;4.20;;;10.40;99.90;;;;;;5011067;28;20999;-75
2020/12/15 02:43:16;;;;;;;4.43;4.03;;;10.50;99.90;;;;;;5010477;28;20419;-75
2020/12/15 02:45:42;;;;;;;4.70;4.30;;;10.70;99.90;;;;;;5010919;28;20284;-75
2020/12/15 02:48:08;;;;;;;4.03;3.73;;;10.80;99.90;;;;;;5010411;28;20181;-75
2020/12/15 02:50:34;;;;;;;4.93;4.53;;;10.90;99.90;;;;;;5011539;28;20179;-75
2020/12/15 02:53:00;;;;;;;4.53;4.20;;;11.00;99.90;;;;;;5004533;28;20632;-76
2020/12/15 02:55:25;;;;;;;5.00;4.50;;;11.10;99.90;;;;;;5011680;28;20403;-75
2020/12/15 02:57:51;;;;;;;4.93;4.60;;;11.20;99.90;;;;;;5011812;28;20206;-75
2020/12/15 03:00:19;;;;;;;5.93;5.50;;;11.30;99.90;;;;;;5009599;28;20182;-75
2020/12/15 03:02:46;;;;;;;3.73;3.53;;;11.50;99.90;;;;;;5011111;28;20194;-75
2020/12/15 03:05:12;;;;;;;5.00;4.60;;;11.50;99.90;;;;;;5010139;28;20422;-76
2020/12/15 03:07:38;;;;;;;4.40;4.10;;;11.70;99.90;;;;;;5010566;28;20417;-75
2020/12/15 03:10:08;;;;;;;5.20;4.70;;;11.80;99.90;;;;;;5006565;28;20433;-75
2020/12/15 03:12:34;;;;;;;4.43;4.10;;;11.80;99.90;;;;;;5012498;28;20598;-75
2020/12/15 03:15:00;;;;;;;4.50;4.20;;;11.90;99.90;;;;;;5011456;28;20414;-76
2020/12/15 03:17:25;;;;;;;4.80;4.40;;;12.00;99.90;;;;;;5011989;28;20835;-75
2020/12/15 03:19:51;;;;;;;5.20;4.80;;;12.10;99.90;;;;;;5012273;28;20181;-75
2020/12/15 03:22:17;;;;;;;5.57;5.17;;;12.00;99.60;;;;;;5010269;28;20403;-75
2020/12/15 03:24:43;;;;;;;5.80;5.40;;;12.00;99.90;;;;;;5012301;28;20192;-75
2020/12/15 03:27:10;;;;;;;5.27;4.93;;;11.90;99.50;;;;;;5010298;28;20193;-75
2020/12/15 03:29:36;;;;;;;4.80;4.60;;;11.80;99.30;;;;;;5012447;28;20454;-75
2020/12/15 03:32:01;;;;;;;6.03;5.63;;;11.70;99.90;;;;;;5010875;28;20435;-75
2020/12/15 03:34:27;;;;;;;5.20;4.80;;;11.80;99.90;;;;;;5013775;28;20425;-75
2020/12/15 03:36:53;;;;;;;6.07;5.60;;;11.80;99.80;;;;;;5014612;28;20213;-75
2020/12/15 03:39:19;;;;;;;5.57;5.10;;;11.80;99.80;;;;;;5014329;28;20189;-75
2020/12/15 03:41:44;;;;;;;6.83;5.70;;;11.60;99.90;;;;;;5013303;28;20190;-74
2020/12/15 03:44:10;;;;;;;5.87;5.33;;;11.60;99.90;;;;;;5016016;28;20194;-75
2020/12/15 03:46:36;;;;;;;5.53;5.00;;;11.70;99.90;;;;;;5014563;28;20263;-75
2020/12/15 03:49:02;;;;;;;7.13;6.30;;;11.70;99.90;;;;;;5014956;28;20554;-76
2020/12/15 03:51:27;;;;;;;5.50;5.00;;;11.70;99.90;;;;;;5015723;28;20186;-76
2020/12/15 03:53:53;;;;;;;5.67;5.27;;;11.70;99.90;;;;;;5015521;28;20188;-75
2020/12/15 03:56:19;;;;;;;5.73;5.33;;;11.80;99.90;;;;;;5014329;28;20258;-75
2020/12/15 03:58:44;;;;;;;5.90;5.40;;;11.80;99.90;;;;;;5015602;28;20177;-75
2020/12/15 04:01:10;;;;;;;5.67;5.20;;;11.90;99.70;;;;;;5014213;28;20667;-75
2020/12/15 04:03:36;;;;;;;6.13;5.60;;;12.00;99.70;;;;;;5014227;28;20228;-75
2020/12/15 04:06:02;;;;;;;5.60;5.10;;;12.00;99.60;;;;;;5014806;28;20566;-73
2020/12/15 04:08:27;;;;;;;5.73;5.33;;;12.00;99.90;;;;;;5015428;28;20643;-71
2020/12/15 04:10:53;;;;;;;6.10;5.60;;;12.10;99.90;;;;;;5014350;28;20435;-70
2020/12/15 04:13:19;;;;;;;6.37;5.87;;;12.10;99.50;;;;;;5013043;28;20202;-71
2020/12/15 04:15:46;;;;;;;6.10;5.60;;;12.10;99.00;;;;;;5015289;28;20179;-70
2020/12/15 04:18:12;;;;;;;6.97;6.37;;;12.10;98.50;;;;;;5013058;28;20476;-71
2020/12/15 04:20:38;;;;;;;6.20;5.70;;;11.80;98.20;;;;;;5015152;28;20421;-70
2020/12/15 04:23:04;;;;;;;8.20;7.40;;;11.50;99.00;;;;;;5014370;28;20418;-71
2020/12/15 04:25:29;;;;;;;6.63;6.10;;;11.40;99.60;;;;;;5014836;28;20509;-70
2020/12/15 04:27:55;;;;;;;6.90;6.40;;;11.30;99.60;;;;;;5014803;28;20724;-70
2020/12/15 04:30:21;;;;;;;7.50;6.90;;;11.00;99.90;;;;;;5013041;28;20179;-70
2020/12/15 04:32:47;;;;;;;5.90;5.43;;;11.10;99.90;;;;;;5013744;28;20424;-70
2020/12/15 04:35:13;;;;;;;6.27;5.77;;;11.20;99.90;;;;;;5014306;28;20187;-70
2020/12/15 04:37:39;;;;;;;6.70;6.20;;;11.20;99.90;;;;;;5014773;28;20461;-70
2020/12/15 04:40:05;;;;;;;6.83;6.33;;;11.20;99.90;;;;;;5014540;28;20997;-70
2020/12/15 04:42:32;;;;;;;5.77;5.37;;;11.10;99.90;;;;;;5014887;28;20424;-70
2020/12/15 04:44:58;;;;;;;7.07;6.53;;;11.20;99.90;;;;;;5013712;28;20421;-70
2020/12/15 04:47:35;;;;;;;7.23;6.73;;;11.30;99.90;;;;;;5013828;28;20424;-70
2020/12/15 04:50:11;;;;;;;7.07;6.53;;;11.20;99.90;;;;;;5014715;28;20446;-72
2020/12/15 04:52:54;;;;;;;8.70;7.47;;;11.30;99.90;;;;;;5014784;28;20486;-70
2020/12/15 04:55:25;;;;;;;7.83;7.20;;;11.00;99.90;;;;;;5014324;28;20403;-70
2020/12/15 04:57:53;;;;;;;8.30;7.60;;;11.10;99.90;;;;;;5014896;28;20463;-70
2020/12/15 05:00:20;;;;;;;7.53;7.00;;;10.80;99.90;;;;;;5014212;28;20423;-70
2020/12/15 05:02:53;;;;;;;7.63;7.00;;;10.80;99.90;;;;;;5014774;28;20415;-70
2020/12/15 05:05:20;;;;;;;6.90;6.20;;;10.80;99.90;;;;;;5014175;28;20439;-70
2020/12/15 05:07:46;;;;;;;7.20;6.50;;;10.80;99.90;;;;;;5014624;28;20406;-70
2020/12/15 05:10:14;;;;;;;8.50;7.70;;;10.60;99.90;;;;;;5013971;28;20490;-70
2020/12/15 05:12:41;;;;;;;8.33;7.53;;;10.50;99.90;;;;;;5013424;28;20486;-70
2020/12/15 05:15:11;;;;;;;9.53;6.50;;;10.50;99.90;;;;;;5013398;28;20420;-70
2020/12/15 05:17:39;;;;;;;7.43;6.73;;;10.60;99.90;;;;;;5014398;28;20469;-70
2020/12/15 05:20:06;;;;;;;7.00;6.40;;;10.50;99.90;;;;;;5013910;28;20412;-71
2020/12/15 05:22:46;;;;;;;8.50;7.80;;;10.30;99.90;;;;;;5014620;28;20509;-70
2020/12/15 05:25:25;;;;;;;9.03;8.13;;;10.60;99.90;;;;;;5013763;28;20457;-70
2020/12/15 05:27:51;;;;;;;7.20;6.50;;;10.70;99.90;;;;;;5014035;28;20825;-70
2020/12/15 05:30:17;;;;;;;7.90;7.10;;;10.80;99.90;;;;;;5013631;28;20403;-70
2020/12/15 05:32:57;;;;;;;7.13;6.63;;;10.90;99.90;;;;;;5014168;28;20410;-70
2020/12/15 05:35:28;;;;;;;7.27;6.67;;;10.90;99.90;;;;;;5013659;28;20164;-70
2020/12/15 05:37:56;;;;;;;7.10;6.33;;;11.00;99.90;;;;;;5013808;28;20967;-70
2020/12/15 05:40:21;;;;;;;7.23;6.63;;;11.00;99.90;;;;;;5013390;28;20415;-70
2020/12/15 05:42:55;;;;;;;8.13;6.30;;;11.10;99.90;;;;;;5014046;28;20416;-70
2020/12/15 05:45:21;;;;;;;6.80;6.30;;;11.10;99.90;;;;;;5011434;28;20190;-70
2020/12/15 05:47:49;;;;;;;7.00;6.50;;;11.10;99.90;;;;;;5013896;28;20469;-70
2020/12/15 05:50:22;;;;;;;7.40;6.90;;;11.00;99.90;;;;;;5013523;28;20420;-70
2020/12/15 05:52:58;;;;;;;6.50;6.00;;;11.10;99.90;;;;;;5013913;28;20413;-70
2020/12/15 05:55:25;;;;;;;9.07;7.07;;;11.10;99.90;;;;;;5013262;28;20689;-70
2020/12/15 05:57:51;;;;;;;8.20;7.50;;;11.10;99.90;;;;;;5013290;28;20458;-70
2020/12/15 06:00:17;;;;;;;7.37;6.67;;;11.20;99.90;;;;;;5013039;28;20504;-70
2020/12/15 06:02:55;;;;;;;7.67;7.07;;;11.20;99.90;;;;;;5013755;28;20409;-70
2020/12/15 06:05:24;;;;;;;7.13;6.53;;;11.40;99.90;;;;;;5013115;28;20884;-70
2020/12/15 06:07:53;;;;;;;7.73;7.03;;;11.50;99.90;;;;;;5013319;28;20414;-70
2020/12/15 06:10:20;;;;;;;6.90;6.30;;;11.50;99.90;;;;;;5012925;28;20483;-70
2020/12/15 06:12:48;;;;;;;7.53;6.93;;;11.30;99.90;;;;;;5013470;28;20415;-70
2020/12/15 06:15:14;;;;;;;7.23;6.53;;;11.30;99.90;;;;;;5012226;28;20904;-70
2020/12/15 06:17:45;;;;;;;7.07;6.47;;;11.30;99.90;;;;;;5013386;28;20454;-70
2020/12/15 06:20:11;;;;;;;7.77;7.17;;;11.20;99.90;;;;;;5012890;28;20251;-70
2020/12/15 06:22:37;;;;;;;6.73;6.23;;;11.30;99.90;;;;;;5013064;28;20415;-70
2020/12/15 06:25:03;;;;;;;7.57;6.97;;;11.40;99.90;;;;;;5013010;28;20933;-70
2020/12/15 06:27:36;;;;;;;6.30;5.80;;;11.40;99.90;;;;;;5012711;28;20428;-70
2020/12/15 06:30:06;;;;;;;7.50;6.93;;;11.50;99.90;;;;;;5013409;28;20676;-70
2020/12/15 06:32:31;;;;;;;7.57;7.07;;;11.50;99.90;;;;;;5013139;28;20526;-70
2020/12/15 06:34:57;;;;;;;7.10;6.53;;;11.50;99.90;;;;;;5012902;28;20451;-70
2020/12/15 06:37:24;;;;;;;6.50;6.00;;;11.70;99.90;;;;;;5012483;28;20603;-71
2020/12/15 06:40:03;;;;;;;7.53;6.93;;;11.70;99.90;;;;;;5013071;28;20190;-70
2020/12/15 06:42:28;;;;;;;6.20;5.70;;;11.80;99.90;;;;;;5012758;28;20417;-70
2020/12/15 06:45:12;;;;;;;6.50;6.00;;;11.80;99.90;;;;;;5012511;28;20434;-70
2020/12/15 06:47:38;;;;;;;6.57;5.97;;;11.70;99.90;;;;;;5013031;28;20177;-70
2020/12/15 06:50:15;;;;;;;6.20;5.70;;;11.50;99.90;;;;;;5011766;28;20413;-70
2020/12/15 06:52:41;;;;;;;6.60;6.10;;;11.60;99.90;;;;;;5013042;28;20425;-70
2020/12/15 06:55:07;;;;;;;7.10;6.50;;;11.40;99.90;;;;;;5012883;28;20415;-70
2020/12/15 06:57:35;;;;;;;6.80;6.20;;;11.30;99.90;;;;;;5012384;28;20453;-70
2020/12/15 07:00:08;;;;;;;5.93;5.53;;;11.50;99.90;;;;;;5012869;28;20243;-70
2020/12/15 07:02:34;;;;;;;7.47;6.87;;;11.50;99.90;;;;;;5012981;28;20458;-70
2020/12/15 07:05:29;;;;;;;6.70;6.20;;;11.50;99.90;;;;;;5012621;28;20506;-70
2020/12/15 07:08:00;;;;;;;6.47;6.07;;;11.50;99.90;;;;;;5004152;28;20468;-70
2020/12/15 07:10:29;;;;;;;5.93;5.50;;;11.50;99.90;;;;;;5015564;28;20431;-71
2020/12/15 07:12:59;;;;;;;6.27;5.77;;;11.60;99.90;;;;;;5016317;28;20411;-70
2020/12/15 07:15:26;;;;;;;6.17;5.70;;;11.50;99.90;;;;;;5015945;28;20425;-70
2020/12/15 07:17:52;;;;;;;6.20;5.80;;;11.50;99.90;;;;;;5016622;28;20812;-70
2020/12/15 07:20:19;;;;;;;6.43;5.80;;;11.60;99.90;;;;;;5016104;28;20417;-71
2020/12/15 07:22:46;;;;;;;6.80;6.30;;;11.40;99.90;;;;;;5014852;28;20432;-70
2020/12/15 07:25:13;;;;;;;7.70;7.10;;;11.50;99.90;;;;;;5016574;28;20420;-69
2020/12/15 07:27:39;;;;;;;7.20;6.60;;;11.40;99.90;;;;;;5016893;28;20508;-70
2020/12/15 07:30:11;;;;;;;6.40;6.00;;;11.50;99.90;;;;;;5016100;28;20478;-70
2020/12/15 07:32:37;;;;;;;6.60;6.10;;;11.50;99.90;;;;;;5016672;28;20421;-70
2020/12/15 07:35:08;;;;;;;6.13;5.70;;;11.60;99.90;;;;;;5016586;28;20417;-70
2020/12/15 07:37:39;;;;;;;6.90;6.40;;;11.70;99.90;;;;;;5013043;28;20549;-70
2020/12/15 07:40:06;;;;;;;6.50;6.10;;;11.80;99.90;;;;;;5015677;28;20939;-70
2020/12/15 07:42:33;;;;;;;5.97;5.57;;;11.50;99.90;;;;;;5016373;28;20413;-71
2020/12/15 07:45:00;;;;;;;10.03;9.13;;;11.60;99.90;;;;;;5016540;28;20453;-70
2020/12/15 07:47:27;;;;;;;8.30;7.60;;;11.60;99.90;;;;;;5015517;28;20818;-70
2020/12/15 07:49:56;;;;;;;5.63;5.23;;;11.50;99.90;;;;;;5016106;28;20996;-70
2020/12/15 07:52:33;;;;;;;6.00;5.50;;;11.70;99.90;;;;;;5015252;28;20413;-71
2020/12/15 07:55:11;;;;;;;6.07;5.57;;;11.70;99.90;;;;;;5012374;28;20433;-71
2020/12/15 07:57:39;;;;;;;5.90;5.40;;;11.70;99.90;;;;;;5016292;28;20440;-70
2020/12/15 08:00:21;;;;;;;6.60;6.10;;;11.70;99.90;;;;;;5016155;28;20512;-70
2020/12/15 08:02:48;;;;;;;5.87;5.47;;;11.70;99.90;;;;;;5016090;28;20398;-70
2020/12/15 08:05:19;;;;;;;6.00;5.60;;;11.80;99.90;;;;;;5015002;28;20895;-70
2020/12/15 08:07:50;;;;;;;5.40;5.00;;;11.70;99.90;;;;;;5015761;28;20425;-70
2020/12/15 08:10:32;;;;;;;4.87;4.57;;;11.60;99.90;;;;;;5010564;28;20431;-70
2020/12/15 08:13:00;;;;;;;4.50;4.20;;;11.60;99.90;;;;;;5015955;28;20401;-70
2020/12/15 08:15:30;;;;;;;5.33;4.97;;;11.60;99.90;;;;;;5015339;28;20408;-70
2020/12/15 08:17:56;;;;;;;5.30;4.90;;;11.40;99.90;;;;;;5015504;28;20464;-70
2020/12/15 08:20:29;;;;;;;5.40;5.10;;;11.50;99.90;;;;;;5014735;28;20419;-70
2020/12/15 08:23:07;;;;;;;4.40;4.13;;;11.40;99.90;;;;;;5015608;28;20955;-70
2020/12/15 08:25:37;;;;;;;4.90;4.60;;;11.50;99.90;;;;;;5012626;28;20943;-71
2020/12/15 08:28:11;;;;;;;4.40;4.10;;;11.50;99.90;;;;;;5015554;28;20459;-70
2020/12/15 08:30:39;;;;;;;5.00;4.70;;;11.30;99.90;;;;;;5015435;28;20848;-70
2020/12/15 08:33:05;;;;;;;4.17;3.87;;;11.30;99.90;;;;;;5015350;28;20457;-70
2020/12/15 08:35:31;;;;;;;5.47;5.20;;;11.50;99.90;;;;;;5014704;28;20416;-70
2020/12/15 08:38:04;;;;;;;5.60;5.20;;;11.60;99.90;;;;;;5015082;28;20458;-70
2020/12/15 08:40:30;;;;;;;5.17;4.77;;;11.70;99.90;;;;;;5013132;28;20485;-70
2020/12/15 08:43:01;;;;;;;3.93;3.63;;;11.60;99.90;;;;;;5014062;28;20417;-70
2020/12/15 08:45:27;;;;;;;3.70;3.50;;;11.40;99.90;;;;;;5014490;28;20498;-70
2020/12/15 08:47:55;;;;;;;4.17;3.87;;;11.50;99.90;;;;;;5015128;28;20409;-70
2020/12/15 08:50:24;;;;;;;4.50;4.30;;;11.20;99.90;;;;;;5014389;28;20430;-70
2020/12/15 08:52:49;;;;;;;4.20;4.00;;;11.20;99.90;;;;;;5014688;28;20423;-70
2020/12/15 08:55:25;;;;;;;4.13;3.83;;;11.50;99.90;;;;;;5014471;28;20504;-71
2020/12/15 08:58:01;;;;;;;4.27;4.07;;;11.40;99.90;;;;;;5014732;28;20208;-70
2020/12/15 09:00:28;;;;;;;4.30;4.10;;;11.40;99.90;;;;;;5013863;28;20898;-70
2020/12/15 09:03:15;;;;;;;4.07;3.87;;;11.50;99.90;;;;;;5014496;28;20460;-70
2020/12/15 09:05:55;;;;;;;4.30;4.00;;;11.50;99.90;;;;;;5014740;28;20423;-70
2020/12/15 09:08:27;;;;;;;4.50;4.30;;;11.60;99.90;;;;;;5014001;28;20413;-71
2020/12/15 09:10:56;;;;;;;5.63;5.20;;;11.60;99.90;;;;;;5014348;28;20424;-71
2020/12/15 09:13:22;;;;;;;3.80;3.60;;;11.60;99.90;;;;;;5013512;28;20425;-71
2020/12/15 09:15:53;;;;;;;4.27;3.97;;;11.60;99.90;;;;;;5014549;28;20425;-70
2020/12/15 09:18:35;;;;;;;3.70;3.50;;;11.60;99.90;;;;;;5013735;28;20457;-71
2020/12/15 09:21:14;;;;;;;4.00;3.80;;;11.70;99.90;;;;;;5014401;28;20444;-71
2020/12/15 09:23:53;;;;;;;3.90;3.70;;;11.80;99.90;;;;;;5014048;28;20416;-70
2020/12/15 09:26:20;;;;;;;3.30;3.20;;;11.80;99.90;;;;;;5013795;28;20418;-71
2020/12/15 09:28:46;;;;;;;3.97;3.67;;;11.80;99.90;;;;;;5014256;28;20769;-70
2020/12/15 09:31:13;;;;;;;3.70;3.50;;;11.80;99.90;;;;;;5013737;28;20471;-70
2020/12/15 09:33:39;;;;;;;4.00;3.80;;;11.80;99.90;;;;;;5013698;28;20449;-70
2020/12/15 09:36:04;;;;;;;4.20;4.00;;;11.80;99.90;;;;;;5014168;28;20412;-70
2020/12/15 09:38:30;;;;;;;4.70;4.40;;;11.70;99.90;;;;;;5013481;28;20199;-70
2020/12/15 09:40:56;;;;;;;4.67;4.17;;;11.80;99.90;;;;;;5013744;28;20179;-70
2020/12/15 09:43:21;;;;;;;3.80;3.60;;;11.60;99.90;;;;;;5012572;28;20635;-71
2020/12/15 09:45:47;;;;;;;3.87;3.67;;;11.70;99.90;;;;;;5013921;28;20701;-70
2020/12/15 09:48:13;;;;;;;3.57;3.37;;;11.70;99.90;;;;;;5013758;28;20189;-70
2020/12/15 09:50:39;;;;;;;3.60;3.40;;;11.70;99.90;;;;;;5012947;28;20668;-70
2020/12/15 09:53:04;;;;;;;3.40;3.20;;;11.80;99.90;;;;;;5013263;28;20516;-71
2020/12/15 09:55:30;;;;;;;3.30;3.10;;;11.80;99.90;;;;;;5012673;28;20623;-71
2020/12/15 09:57:56;;;;;;;3.33;3.23;;;11.90;99.90;;;;;;5013380;28;20203;-70
2020/12/15 10:00:21;;;;;;;4.77;4.47;;;11.90;99.90;;;;;;5013112;28;20204;-70
2020/12/15 10:02:47;;;;;;;3.87;3.50;;;11.70;99.90;;;;;;5012570;28;20177;-70
2020/12/15 10:05:13;;;;;;;3.20;3.00;;;11.50;99.90;;;;;;5012006;28;20645;-70
2020/12/15 10:07:39;;;;;;;4.90;4.70;;;11.60;99.90;;;;;;5010548;28;20187;-71
2020/12/15 10:10:07;;;;;;;3.53;3.40;;;11.70;99.90;;;;;;5012201;28;20269;-70
2020/12/15 10:12:33;;;;;;;4.30;4.10;;;11.80;99.90;;;;;;5008334;28;20180;-71
2020/12/15 10:14:59;;;;;;;3.70;3.50;;;11.70;99.90;;;;;;5009110;28;20480;-70
2020/12/15 10:17:27;;;;;;;3.50;3.30;;;11.80;99.90;;;;;;5012358;28;20467;-71
2020/12/15 10:19:52;;;;;;;3.23;3.00;;;11.70;99.90;;;;;;5012971;28;20445;-71
2020/12/15 10:22:18;;;;;;;3.97;3.77;;;11.80;99.90;;;;;;5013104;28;20448;-71
2020/12/15 10:24:44;;;;;;;4.43;4.10;;;11.90;99.90;;;;;;5012266;28;20271;-71
2020/12/15 10:27:11;;;;;;;5.87;5.57;;;11.90;99.90;;;;;;5013265;28;20334;-71
2020/12/15 10:29:37;;;;;;;3.50;3.20;;;12.00;99.90;;;;;;5013076;28;20220;-72
2020/12/15 10:32:03;;;;;;;4.90;4.70;;;12.00;99.90;;;;;;5013250;28;20890;-71
2020/12/15 10:34:29;;;;;;;3.90;3.60;;;11.90;99.90;;;;;;5012596;28;20403;-71
2020/12/15 10:36:56;;;;;;;5.20;4.90;;;12.00;99.90;;;;;;5013079;28;20464;-71
2020/12/15 10:39:22;;;;;;;4.90;4.67;;;12.00;99.90;;;;;;5012292;28;20175;-72
2020/12/15 10:41:49;;;;;;;3.90;3.60;;;11.90;99.90;;;;;;5011962;28;20933;-71
2020/12/15 10:44:15;;;;;;;5.70;5.40;;;11.90;99.90;;;;;;5010931;28;20418;-71
2020/12/15 10:46:42;;;;;;;3.40;3.20;;;12.10;99.90;;;;;;5011060;28;20783;-71
2020/12/15 10:49:08;;;;;;;3.70;3.50;;;12.10;99.90;;;;;;5011699;28;20182;-71
2020/12/15 10:51:34;;;;;;;3.27;3.07;;;12.10;99.90;;;;;;5011004;28;20775;-71
2020/12/15 10:53:59;;;;;;;3.90;3.70;;;12.20;99.90;;;;;;5011522;28;20508;-71
2020/12/15 10:56:25;;;;;;;4.20;4.00;;;12.30;99.90;;;;;;5010830;28;20411;-72
2020/12/15 10:58:51;;;;;;;6.23;5.83;;;12.30;99.90;;;;;;5011581;28;20191;-71
2020/12/15 11:01:17;;;;;;;3.77;3.57;;;12.30;99.90;;;;;;5011616;28;20519;-70
2020/12/15 11:03:42;;;;;;;6.63;6.33;;;12.40;99.90;;;;;;5010164;28;20191;-70
2020/12/15 11:06:08;;;;;;;4.97;4.67;;;12.50;99.90;;;;;;5012098;28;20229;-70
2020/12/15 11:08:34;;;;;;;5.03;4.63;;;12.50;99.90;;;;;;5010833;28;20258;-70
2020/12/15 11:10:59;;;;;;;5.40;5.10;;;12.50;99.90;;;;;;5009809;28;20221;-70
2020/12/15 11:13:25;;;;;;;5.43;5.13;;;12.60;99.90;;;;;;5009976;28;20218;-70
2020/12/15 11:15:51;;;;;;;6.60;6.20;;;12.60;99.90;;;;;;5007365;28;20190;-69
2020/12/15 11:18:16;;;;;;;5.47;5.17;;;12.50;99.90;;;;;;5011028;28;20711;-69
2020/12/15 11:20:42;;;;;;;4.73;4.33;;;12.50;99.90;;;;;;5011349;28;20274;-69
2020/12/15 11:23:08;;;;;;;4.37;4.07;;;12.50;99.90;;;;;;5012343;28;20252;-69
2020/12/15 11:25:34;;;;;;;4.57;4.27;;;12.50;99.90;;;;;;5011377;28;20191;-69
2020/12/15 11:28:00;;;;;;;4.90;4.53;;;12.60;99.90;;;;;;5012033;28;20678;-69
2020/12/15 11:30:26;;;;;;;4.90;4.60;;;12.60;99.90;;;;;;5012045;28;20729;-69
2020/12/15 11:32:52;;;;;;;6.00;5.60;;;12.60;99.90;;;;;;5012439;28;20429;-69
2020/12/15 11:35:17;;;;;;;6.07;5.77;;;12.50;99.90;;;;;;5012593;28;20831;-69
2020/12/15 11:37:44;;;;;;;5.50;5.10;;;12.60;99.90;;;;;;5011653;28;20217;-69
2020/12/15 11:40:12;;;;;;;4.97;4.57;;;12.60;99.90;;;;;;5012494;28;20178;-69
2020/12/15 11:42:38;;;;;;;6.50;6.10;;;12.60;99.90;;;;;;5011792;28;20503;-70
2020/12/15 11:45:05;;;;;;;5.60;5.20;;;12.60;99.90;;;;;;5002669;28;20513;-69
2020/12/15 11:47:31;;;;;;;5.90;5.50;;;12.60;99.90;;;;;;5011410;28;20261;-70
2020/12/15 11:49:56;;;;;;;7.57;7.03;;;12.70;99.90;;;;;;5012286;28;20506;-70
2020/12/15 11:52:23;;;;;;;7.80;7.30;;;12.70;99.90;;;;;;5011823;28;20270;-71
2020/12/15 11:54:49;;;;;;;7.13;6.63;;;12.70;99.90;;;;;;5012987;28;20545;-69
2020/12/15 11:57:15;;;;;;;7.37;6.83;;;12.60;99.90;;;;;;5015789;28;20463;-69
2020/12/15 11:59:41;;;;;;;7.37;6.77;;;12.50;99.90;;;;;;5010398;28;20223;-69
2020/12/15 12:02:07;;;;;;;6.50;6.10;;;12.50;99.90;;;;;;5009332;28;20420;-69
2020/12/15 12:04:33;;;;;;;6.27;5.87;;;12.60;99.90;;;;;;5014767;28;20428;-69
2020/12/15 12:06:58;;;;;;;6.30;5.80;;;12.60;99.90;;;;;;5015831;28;20414;-69
2020/12/15 12:09:24;;;;;;;7.40;6.70;;;12.60;99.90;;;;;;5015110;28;20204;-69
2020/12/15 12:11:50;;;;;;;9.20;8.50;;;12.60;99.90;;;;;;5015404;28;20640;-69
2020/12/15 12:14:19;;;;;;;7.77;7.20;;;12.60;99.90;;;;;;5015484;28;20173;-70
2020/12/15 12:16:44;;;;;;;7.80;7.20;;;12.60;99.90;;;;;;5005407;28;20334;-69
2020/12/15 12:19:10;;;;;;;6.87;6.37;;;12.60;99.90;;;;;;5015961;28;20528;-69
2020/12/15 12:21:37;;;;;;;7.80;7.20;;;12.60;99.90;;;;;;5015546;28;20179;-69
2020/12/15 12:24:03;;;;;;;8.23;7.60;;;12.60;99.90;;;;;;5015372;28;20190;-69
2020/12/15 12:26:29;;;;;;;7.30;6.73;;;12.60;99.90;;;;;;5014543;28;20882;-69
2020/12/15 12:28:56;;;;;;;7.53;6.93;;;12.60;99.90;;;;;;5015079;28;20230;-69
2020/12/15 12:31:22;;;;;;;7.77;7.07;;;12.70;99.90;;;;;;5009564;28;20190;-69
2020/12/15 12:33:49;;;;;;;7.83;7.30;;;12.70;99.90;;;;;;5011446;28;20930;-69
2020/12/15 12:36:14;;;;;;;8.57;7.97;;;12.70;99.90;;;;;;5015308;28;20493;-69
2020/12/15 12:38:40;;;;;;;8.47;7.90;;;12.60;99.90;;;;;;5014700;28;20545;-69
2020/12/15 12:41:05;;;;;;;8.73;8.13;;;12.70;99.90;;;;;;5015153;28;20178;-69
2020/12/15 12:43:31;;;;;;;8.70;8.10;;;12.70;99.90;;;;;;5014496;28;20263;-69
2020/12/15 12:45:57;;;;;;;8.67;7.97;;;12.70;99.90;;;;;;5014692;28;20182;-69
2020/12/15 12:48:23;;;;;;;9.20;8.50;;;12.70;99.90;;;;;;5022119;28;20179;-69
2020/12/15 12:50:48;;;;;;;8.93;8.30;;;12.70;99.90;;;;;;5014905;28;20207;-69